Gaithersburg, MD

1:28 PM EDT on September 16, 2014 (GMT -0400)
Cedar Ridge | Change Station
CLOSE
Current Station
Personal Weather Station
Location: Laytonsville, MD
Elevation: 620 ft
Nearby Weather Stations

Elev 620 ft 39.27 °N, 77.19 °W | Updated 12 seconds ago

Overcast
Overcast
70.9 °F
Feels Like 76 °F
N
9.2
Wind Variable Wind from SW
Gusts 9.2 mph

Today
High -- | Low -- °F
--% Chance of Precip.
Yesterday
High -- | Low -- °F
Precip. -- in
6:50 AM 7:15 PM
Last Quarter, 44% visible
Pressure 30.06 in
Visibility 10.0 miles
Clouds Few 3600 ft
Scattered Clouds 4700 ft
Mostly Cloudy 6000 ft
Heat Index 76 °F
Dew Point 56 °F
Humidity 59%
Rainfall 0.00 in
Snow Depth Not available.
UV 4 out of 12
Pollen 5.00 out of 12
Air Quality Not available.
Flu Activity Not available.
METAR KGAI 161715Z AUTO 30011G14KT 10SM FEW036 SCT047 BKN060 21/12 A3006 RMK AO1

More Conditions Fewer Conditions

Pressure 30.06 in
Visibility 10.0 miles
Clouds Few 3600 ft
Scattered Clouds 4700 ft
Mostly Cloudy 6000 ft
Heat Index 76 °F
Dew Point 56 °F
Humidity 59%
Rainfall 0.00 in
Snow Depth Not available.
UV 4 out of 12
Pollen 5.00 out of 12
Air Quality Not available.
Flu Activity Not available.
METAR KGAI 161715Z AUTO 30011G14KT 10SM FEW036 SCT047 BKN060 21/12 A3006 RMK AO1

More Conditions Fewer Conditions

10-Day Weather Forecast

Almanac

Astronomy

Sep. 16, 2014 Rise Set
Actual Time 6:50 AM EDT 7:15 PM EDT
Civil Twilight 6:24 AM EDT 7:42 PM EDT
Nautical Twilight 5:52 AM EDT 8:13 PM EDT
Astronomical Twilight 5:20 AM EDT 8:46 PM EDT
Moon 12:00 AM EDT 2:36 PM EDT
Length of Visible Light 13h 18m
Length of Day
12h 24m
Tomorrow will be 2m 33s shorter.
Last Quarter, 44% of the Moon is Illuminated
Today
Last Quarter
Sep 24
New
Oct 1
First Quarter
Oct 8
Full
Oct 15
Last Quarter

Today's Extremes

State Highs State Lows

Community

WunderPhotos

Upload Photos

1,753,838 photos uploaded!

Nearby

Snow Depth

Station Depth Elevation
No new snow has been reported.

Earthquake Activity

City Distance Mag. Time & Date
No recent earthquake activity has been reported nearby.
Minimum magnitude displayed is 2.5.

Coastal Water Temperatures

Place Temperature
Washington, DC 75.0 °F
Baltimore, MD 78.1 °F
Solomons Island, MD 75.9 °F

Nearby Weather Stations